الصفحة الرئيسية
METAR-TAF:

METAR-TAF

مطار :

سان خوسيه, كوستاريكا

دائرة عرض: 09-57N, خط طول: 084-09W, ارتفاع: 994 متر

مراقبة الطقس الحالي

تاريخ ووقت الإصدار 42 دقيقة قبل الساعة 20:00UTC
ريح 18 عقدة من الشرق
درجة الحرارة 26°درجة مئوية
الرطوبة 54%
ضغط 1016 hPa
الرؤية 10 كم أو أكثر
غيوم قليلة على ارتفاع 3500 قدم
غيوم متفرقة على ارتفاع 20000 قدم

METAR: MRPV 232000Z 09018KT 9999 FEW035 SCT200 26/16 A3000 NOSIG

زمن: 14:42 (20:42 UTC)

توقعات

تاريخ ووقت الإصدار 3ساعات و 42 دقيقة قبل الساعة 17:00UTC
التوقعات صالحة من23 الساعة 18 UTC إلى 24 الساعة 18 UTC
ريح 16 عقدة من الشرق
الرؤية 10 كم أو أكثر
غيوم متفرقة على ارتفاع 3500 قدم

TAF: MRPV 231700Z 2318/2418 09016KT 9999 SCT035 TX27/2318Z TN19/2410Z

أرصاد الطقس والتوقعات من أكثر من 4000 مطار (تقارير الطقس للمطار METAR والتنبؤ بالطقس بالمطارTAF).

المحطات المتاحة هي النقط الصفراء والحمراء على الخريطة.

حرك المؤشر فوق النقطة لمعرفة اسم المحطة.

ثم انقر لمعرفة أرصاد وتوقعات الطقس.

لتغيير الخارطة: اضغط على الأزرار الخضراء مع رمز الصليب الأسود للتكبير. على الزر الأخضر مع شرطة للتصغير، أو على الأسهم الخضراء للخرائط المجاورة.


METAR-TAF: